Millers River @ Athol, Ma

Millers River at Athol
 Total Drainage Area: 280 sq. miles 
 Drainage Area Controlled by Corps Dams: 225 sq. miles (80%) 
 Warning Flow/Stage: 2,670 cfs / 2.5 feet 
 Flood Flow/Stage: 3,155 cfs / 3.3 feet 
Date Time
(Eastern)
Stage
(ft)
Flow
(cfs)
CSM
May-28 12:30 pm -3.65 253 .9
May-28 11:30 am -3.65 253 .9
May-28 10:30 am -3.64 254 .9
May-28 09:30 am -3.64 254 .9
May-28 08:30 am -3.64 254 .9
May-28 07:30 am -3.64 254 .9
May-28 06:30 am -3.65 253 .9
May-28 05:30 am -3.64 254 .9
May-28 04:30 am -3.62 258 .9
May-28 03:30 am -3.75 234 .8
May-28 02:30 am -3.75 234 .8
May-28 01:30 am -3.76 232 .8
May-28 12:30 am -3.75 234 .8
May-27 11:30 pm -3.75 234 .8
May-27 10:30 pm -3.75 234 .8
May-27 09:30 pm -3.74 235 .8
May-27 08:30 pm -3.74 235 .8
May-27 07:30 pm -3.73 237 .9
May-27 06:30 pm -3.72 239 .9
May-27 05:30 pm -3.71 241 .9
May-27 04:30 pm -3.69 245 .9
May-27 03:30 pm -3.70 243 .9
May-27 02:30 pm -3.70 243 .9
May-27 01:30 pm -3.70 243 .9
May-27 12:30 pm -3.69 245 .9
Report Generated May 28, 2022 04:46 pm